Time;durP1;ratioP1;P1;durP2;ratioP2;P2;SDS_P1;SDS_P2;PMS_P1;PMS_P2;Temp;Humidity;BMP_temperature;BMP_pressure;BME280_temperature;BME280_humidity;BME280_pressure;Samples;Min_cycle;Max_cycle;Signal;HPM_P1;HPM_P2
2023/10/13 00:02:13;;;;;;;173.65;39.13;;;;;;;;;;5001159;28;20409;-79
2023/10/13 00:04:42;;;;;;;143.98;38.40;;;;;;;;;;4988892;28;20122;-79
2023/10/13 00:07:09;;;;;;;149.52;37.55;;;;;;;;;;5002462;28;20053;-80
2023/10/13 00:09:38;;;;;;;154.80;36.67;;;;;;;;;;4998951;28;20049;-79
2023/10/13 00:12:09;;;;;;;139.00;38.25;;;;;;;;;;5003188;28;20559;-79
2023/10/13 00:14:35;;;;;;;162.90;38.45;;;;;;;;;;5003793;28;20076;-79
2023/10/13 00:17:05;;;;;;;177.00;39.70;;;;;;;;;;5002755;28;20796;-79
2023/10/13 00:19:44;;;;;;;167.93;40.90;;;;;;;;;;4985582;28;20041;-80
2023/10/13 00:22:10;;;;;;;153.02;37.10;;;;;;;;;;4994566;28;20036;-79
2023/10/13 00:24:45;;;;;;;176.63;41.60;;;;;;;;;;5001781;28;20055;-79
2023/10/13 00:27:36;;;;;;;152.27;38.58;;;;;;;;;;4989228;28;20084;-79
2023/10/13 00:30:22;;;;;;;204.85;42.55;;;;;;;;;;5003481;28;20049;-79
2023/10/13 00:32:56;;;;;;;187.65;42.15;;;;;;;;;;4997625;28;20073;-79
2023/10/13 00:35:29;;;;;;;165.15;41.97;;;;;;;;;;4993158;28;20068;-79
2023/10/13 00:37:57;;;;;;;212.43;48.80;;;;;;;;;;5001107;28;20062;-79
2023/10/13 00:43:28;;;;;;;188.93;44.70;;;;;;;;;;4999591;28;20445;-79
2023/10/13 00:45:44;;;;;;;196.18;46.75;;;;;;;;;;4996693;28;20141;-79
2023/10/13 00:48:14;;;;;;;194.38;46.45;;;;;;;;;;4999620;28;20185;-80
2023/10/13 00:50:41;;;;;;;202.48;45.17;;;;;;;;;;4988425;28;20041;-80
2023/10/13 00:53:08;;;;;;;240.60;50.03;;;;;;;;;;5003061;28;20030;-79
2023/10/13 00:55:34;;;;;;;186.35;46.50;;;;;;;;;;4985185;28;20052;-81
2023/10/13 00:58:03;;;;;;;180.80;48.75;;;;;;;;;;4974366;28;20040;-81
2023/10/13 01:00:46;;;;;;;180.32;43.67;;;;;;;;;;4987276;28;20528;-79
2023/10/13 01:03:12;;;;;;;170.73;45.70;;;;;;;;;;5001989;28;20056;-80
2023/10/13 01:05:39;;;;;;;161.00;47.60;;;;;;;;;;5000322;28;20045;-79
2023/10/13 01:08:10;;;;;;;155.10;45.55;;;;;;;;;;4991090;28;20041;-79
2023/10/13 01:10:37;;;;;;;152.05;45.10;;;;;;;;;;4984434;28;20041;-80
2023/10/13 01:13:04;;;;;;;158.23;45.45;;;;;;;;;;4990913;28;20053;-80
2023/10/13 01:15:33;;;;;;;155.15;43.10;;;;;;;;;;4985957;28;20077;-79
2023/10/13 01:18:13;;;;;;;152.20;42.63;;;;;;;;;;4985292;28;20042;-79
2023/10/13 01:20:45;;;;;;;147.18;47.05;;;;;;;;;;4997160;28;20049;-81
2023/10/13 01:23:18;;;;;;;147.32;45.65;;;;;;;;;;4994816;28;20067;-78
2023/10/13 01:25:45;;;;;;;131.00;44.20;;;;;;;;;;4986887;28;20091;-79
2023/10/13 01:28:15;;;;;;;134.07;43.20;;;;;;;;;;4972284;28;20386;-81
2023/10/13 01:30:42;;;;;;;142.98;44.78;;;;;;;;;;4998631;28;20396;-80
2023/10/13 01:33:10;;;;;;;131.25;43.13;;;;;;;;;;4968444;28;20029;-79
2023/10/13 01:35:41;;;;;;;139.13;43.80;;;;;;;;;;5004534;28;20536;-80
2023/10/13 01:38:07;;;;;;;143.90;45.10;;;;;;;;;;4997016;28;20053;-79
2023/10/13 01:40:34;;;;;;;136.88;43.30;;;;;;;;;;4983076;28;20038;-79
2023/10/13 01:43:01;;;;;;;133.40;41.83;;;;;;;;;;4987792;28;20053;-79
2023/10/13 01:45:30;;;;;;;136.88;42.78;;;;;;;;;;4987224;28;20068;-79
2023/10/13 01:47:56;;;;;;;131.95;43.33;;;;;;;;;;4980965;28;20053;-79
2023/10/13 01:50:30;;;;;;;129.80;42.83;;;;;;;;;;5004548;28;20073;-80
2023/10/13 01:53:11;;;;;;;126.65;43.88;;;;;;;;;;4990120;28;20401;-79
2023/10/13 01:55:42;;;;;;;131.35;43.80;;;;;;;;;;4999669;28;20482;-79
2023/10/13 01:58:15;;;;;;;135.82;42.72;;;;;;;;;;4998431;28;20042;-80
2023/10/13 02:00:45;;;;;;;125.05;42.00;;;;;;;;;;4984989;28;20042;-80
2023/10/13 02:03:15;;;;;;;130.77;42.28;;;;;;;;;;4986635;28;20042;-79
2023/10/13 02:05:57;;;;;;;135.38;43.60;;;;;;;;;;5002222;28;20493;-78
2023/10/13 02:08:24;;;;;;;140.27;45.00;;;;;;;;;;4991247;28;20048;-79
2023/10/13 02:10:54;;;;;;;130.82;43.72;;;;;;;;;;4991064;28;20045;-80
2023/10/13 02:13:22;;;;;;;118.95;41.60;;;;;;;;;;5002871;28;20037;-79
2023/10/13 02:15:48;;;;;;;121.63;42.92;;;;;;;;;;4988189;28;20049;-78
2023/10/13 02:18:20;;;;;;;120.70;41.95;;;;;;;;;;4990440;28;20045;-80
2023/10/13 02:20:54;;;;;;;128.07;43.25;;;;;;;;;;5001329;28;20034;-78
2023/10/13 02:23:20;;;;;;;118.82;43.15;;;;;;;;;;4974097;28;20038;-78
2023/10/13 02:25:46;;;;;;;113.35;41.15;;;;;;;;;;4985158;28;20544;-78
2023/10/13 02:28:21;;;;;;;112.90;40.13;;;;;;;;;;5003611;28;20049;-79
2023/10/13 02:30:53;;;;;;;116.40;41.50;;;;;;;;;;4989010;28;20038;-78
2023/10/13 02:33:22;;;;;;;108.68;39.70;;;;;;;;;;4990561;28;20038;-78
2023/10/13 02:35:54;;;;;;;99.43;36.17;;;;;;;;;;4983540;28;20485;-78
2023/10/13 02:38:33;;;;;;;101.13;39.65;;;;;;;;;;4996482;28;20058;-79
2023/10/13 02:41:05;;;;;;;89.88;34.35;;;;;;;;;;4971854;28;20401;-78
2023/10/13 02:43:33;;;;;;;89.78;34.88;;;;;;;;;;4999904;28;20129;-78
2023/10/13 02:45:59;;;;;;;84.65;35.70;;;;;;;;;;4982173;28;20457;-79
2023/10/13 02:48:42;;;;;;;82.03;34.53;;;;;;;;;;4997788;28;20088;-78
2023/10/13 02:51:15;;;;;;;76.13;31.55;;;;;;;;;;5004185;28;20120;-79
2023/10/13 02:53:42;;;;;;;81.95;33.55;;;;;;;;;;4982339;28;20438;-78
2023/10/13 02:56:08;;;;;;;81.45;33.72;;;;;;;;;;5000856;28;20065;-78
2023/10/13 02:58:43;;;;;;;85.72;34.17;;;;;;;;;;5005657;28;20077;-78
2023/10/13 03:01:19;;;;;;;81.05;33.88;;;;;;;;;;4998526;28;20516;-78
2023/10/13 03:03:54;;;;;;;78.20;33.72;;;;;;;;;;4998152;28;20048;-79
2023/10/13 03:06:31;;;;;;;66.82;30.73;;;;;;;;;;5002507;28;20181;-78
2023/10/13 03:09:00;;;;;;;63.40;31.25;;;;;;;;;;5001497;28;20061;-77
2023/10/13 03:11:32;;;;;;;58.75;26.55;;;;;;;;;;4985774;28;20930;-79
2023/10/13 03:13:58;;;;;;;57.10;29.88;;;;;;;;;;5001432;28;20087;-77
2023/10/13 03:16:27;;;;;;;56.03;27.67;;;;;;;;;;4972589;28;20038;-77
2023/10/13 03:18:55;;;;;;;51.65;26.70;;;;;;;;;;4983964;28;21379;-76
2023/10/13 03:21:29;;;;;;;45.55;23.55;;;;;;;;;;4976383;28;20049;-81
2023/10/13 03:24:06;;;;;;;39.80;21.90;;;;;;;;;;4996228;28;20061;-82
2023/10/13 03:26:36;;;;;;;37.28;21.52;;;;;;;;;;4992306;28;20112;-82
2023/10/13 03:29:13;;;;;;;35.20;19.80;;;;;;;;;;5000287;28;20061;-83
2023/10/13 03:31:39;;;;;;;45.40;21.63;;;;;;;;;;5022226;28;20058;-82
2023/10/13 03:34:09;;;;;;;36.33;20.45;;;;;;;;;;4988400;28;20168;-82
2023/10/13 03:36:58;;;;;;;44.25;23.73;;;;;;;;;;4992387;28;20305;-82
2023/10/13 03:39:28;;;;;;;44.83;24.75;;;;;;;;;;4984961;28;20045;-83
2023/10/13 03:41:54;;;;;;;52.45;25.45;;;;;;;;;;4990396;28;20034;-82
2023/10/13 03:44:21;;;;;;;45.58;25.08;;;;;;;;;;4984881;28;20038;-81
2023/10/13 03:46:49;;;;;;;54.88;26.35;;;;;;;;;;4981182;28;20054;-82
2023/10/13 03:49:21;;;;;;;61.70;27.98;;;;;;;;;;4983259;28;20050;-82
2023/10/13 03:51:48;;;;;;;62.70;27.98;;;;;;;;;;4996772;28;20042;-82
2023/10/13 03:54:16;;;;;;;64.93;29.30;;;;;;;;;;4998194;28;20049;-83
2023/10/13 03:56:44;;;;;;;66.07;30.35;;;;;;;;;;5003587;28;20042;-82
2023/10/13 04:01:46;;;;;;;68.97;32.60;;;;;;;;;;5002931;28;20054;-82
2023/10/13 04:04:34;;;;;;;77.13;33.40;;;;;;;;;;4995293;28;20057;-82
2023/10/13 04:17:25;;;;;;;66.32;30.75;;;;;;;;;;4994578;28;20056;-78
2023/10/13 04:37:10;;;;;;;63.75;28.10;;;;;;;;;;4984579;28;20093;-79
2023/10/13 04:41:42;;;;;;;57.08;24.25;;;;;;;;;;4982734;28;20048;-79
2023/10/13 04:49:35;;;;;;;59.03;26.25;;;;;;;;;;4983632;28;20517;-77
2023/10/13 05:51:47;;;;;;;31.42;15.60;;;;;;;;;;4975393;28;20046;-81
2023/10/13 06:30:08;;;;;;;18.25;11.35;;;;;;;;;;4984131;28;20482;-81
2023/10/13 06:32:39;;;;;;;14.40;10.18;;;;;;;;;;4997648;28;20683;-82
2023/10/13 06:35:07;;;;;;;17.60;10.15;;;;;;;;;;4972633;28;20042;-81
2023/10/13 06:37:34;;;;;;;13.15;8.93;;;;;;;;;;4984484;28;20057;-82
2023/10/13 06:40:25;;;;;;;14.88;9.63;;;;;;;;;;4988668;28;20050;-81
2023/10/13 06:42:53;;;;;;;17.92;11.07;;;;;;;;;;5001791;28;20592;-80
2023/10/13 06:45:20;;;;;;;17.20;11.00;;;;;;;;;;4986904;28;20053;-81
2023/10/13 06:47:46;;;;;;;18.85;10.85;;;;;;;;;;4986401;28;20106;-81
2023/10/13 06:50:16;;;;;;;21.17;11.57;;;;;;;;;;4986959;28;20038;-82
2023/10/13 06:52:43;;;;;;;19.33;11.43;;;;;;;;;;4989973;28;20042;-85
2023/10/13 06:55:17;;;;;;;20.27;11.57;;;;;;;;;;4988553;28;20096;-82
2023/10/13 06:57:43;;;;;;;16.77;10.25;;;;;;;;;;4991024;28;20042;-80
2023/10/13 07:00:19;;;;;;;15.57;9.98;;;;;;;;;;4983132;28;20060;-82
2023/10/13 07:02:46;;;;;;;14.95;9.65;;;;;;;;;;5000053;28;20123;-83
2023/10/13 07:05:14;;;;;;;13.98;8.80;;;;;;;;;;5005079;28;20050;-82
2023/10/13 07:07:40;;;;;;;15.77;9.32;;;;;;;;;;4995392;28;20052;-81
2023/10/13 07:10:11;;;;;;;10.13;5.28;;;;;;;;;;5007291;28;20382;-82
2023/10/13 07:12:41;;;;;;;9.43;6.72;;;;;;;;;;4999709;28;20576;-83
2023/10/13 07:15:19;;;;;;;10.75;7.32;;;;;;;;;;4995701;28;20100;-85
2023/10/13 07:17:54;;;;;;;12.95;7.95;;;;;;;;;;4993512;28;20049;-84
2023/10/13 07:20:33;;;;;;;9.45;6.30;;;;;;;;;;4997141;28;20042;-84
2023/10/13 07:23:06;;;;;;;9.50;6.68;;;;;;;;;;4984711;28;20118;-83
2023/10/13 07:25:32;;;;;;;9.67;5.80;;;;;;;;;;4991732;28;20045;-82
2023/10/13 07:28:03;;;;;;;9.85;6.10;;;;;;;;;;5002117;28;20120;-87
2023/10/13 07:30:31;;;;;;;8.80;6.38;;;;;;;;;;4972523;28;20037;-86
2023/10/13 07:32:59;;;;;;;10.68;6.85;;;;;;;;;;4992891;28;20034;-84
2023/10/13 07:35:26;;;;;;;11.90;4.65;;;;;;;;;;4984526;28;20478;-85
2023/10/13 07:37:53;;;;;;;12.52;5.88;;;;;;;;;;4985625;28;20050;-85
2023/10/13 07:42:52;;;;;;;15.35;7.10;;;;;;;;;;5003063;28;20073;-83
2023/10/13 07:45:32;;;;;;;11.02;5.60;;;;;;;;;;5002544;28;20487;-83
2023/10/13 07:48:00;;;;;;;13.30;6.15;;;;;;;;;;4979895;28;20547;-83
2023/10/13 07:50:26;;;;;;;10.73;6.32;;;;;;;;;;4997300;28;20084;-83
2023/10/13 07:55:38;;;;;;;9.70;6.35;;;;;;;;;;4990328;28;20054;-83
2023/10/13 07:58:07;;;;;;;14.32;5.88;;;;;;;;;;4993283;28;20034;-84
2023/10/13 08:08:26;;;;;;;12.32;6.90;;;;;;;;;;5002445;28;20041;-84
2023/10/13 08:10:55;;;;;;;16.45;6.82;;;;;;;;;;4970456;28;20046;-86
2023/10/13 08:13:22;;;;;;;15.32;7.10;;;;;;;;;;5005979;28;20034;-86
2023/10/13 08:15:49;;;;;;;12.10;7.28;;;;;;;;;;5006033;28;20048;-86
2023/10/13 08:18:29;;;;;;;13.75;6.53;;;;;;;;;;4983741;28;20073;-85
2023/10/13 08:21:02;;;;;;;15.50;6.93;;;;;;;;;;4987655;28;20058;-85
2023/10/13 08:23:57;;;;;;;16.95;6.35;;;;;;;;;;4975245;28;20037;-85
2023/10/13 08:26:29;;;;;;;12.18;6.60;;;;;;;;;;5000802;28;20046;-85
2023/10/13 08:29:53;;;;;;;10.52;6.50;;;;;;;;;;4987849;28;20046;-85
2023/10/13 08:34:39;;;;;;;16.70;7.57;;;;;;;;;;4996794;28;20050;-85
2023/10/13 08:53:28;;;;;;;20.23;8.13;;;;;;;;;;5013911;28;20081;-84
2023/10/13 09:09:39;;;;;;;13.57;8.30;;;;;;;;;;5000812;28;20050;-84
2023/10/13 09:12:13;;;;;;;26.60;10.57;;;;;;;;;;4990845;28;20045;-86
2023/10/13 09:14:44;;;;;;;17.90;8.55;;;;;;;;;;4983742;28;20074;-85
2023/10/13 09:19:49;;;;;;;20.20;8.85;;;;;;;;;;5003730;28;20128;-88
2023/10/13 09:22:35;;;;;;;21.05;9.73;;;;;;;;;;4998565;28;20042;-88
2023/10/13 09:25:02;;;;;;;12.00;7.53;;;;;;;;;;4985579;28;20049;-86
2023/10/13 09:27:32;;;;;;;16.02;8.70;;;;;;;;;;5007108;28;20065;-88
2023/10/13 09:32:48;;;;;;;18.63;9.27;;;;;;;;;;4992663;28;20050;-87
2023/10/13 09:35:22;;;;;;;19.83;8.30;;;;;;;;;;4986973;28;20054;-86
2023/10/13 09:37:50;;;;;;;16.17;9.82;;;;;;;;;;5004630;28;20080;-86
2023/10/13 09:40:25;;;;;;;18.98;9.07;;;;;;;;;;4986517;28;20049;-87
2023/10/13 09:42:55;;;;;;;13.30;6.28;;;;;;;;;;4999489;28;20088;-82
2023/10/13 09:45:27;;;;;;;14.05;6.70;;;;;;;;;;4989384;28;20048;-86
2023/10/13 09:47:53;;;;;;;9.93;7.18;;;;;;;;;;4989048;28;20061;-86
2023/10/13 09:50:26;;;;;;;15.45;6.63;;;;;;;;;;4995617;28;20037;-88
2023/10/13 09:52:52;;;;;;;14.45;7.57;;;;;;;;;;4991755;28;20486;-86
2023/10/13 09:55:22;;;;;;;14.82;6.50;;;;;;;;;;4998834;28;20498;-86
2023/10/13 09:57:57;;;;;;;16.73;6.28;;;;;;;;;;4993158;28;20092;-87
2023/10/13 10:00:35;;;;;;;11.95;6.28;;;;;;;;;;4989942;28;20064;-86
2023/10/13 10:06:17;;;;;;;15.90;6.70;;;;;;;;;;5003941;28;20474;-82
2023/10/13 10:08:50;;;;;;;13.80;6.63;;;;;;;;;;4975005;28;20042;-81
2023/10/13 10:11:34;;;;;;;12.32;7.18;;;;;;;;;;4977942;28;20080;-80
2023/10/13 10:14:08;;;;;;;9.88;4.75;;;;;;;;;;5000842;28;20042;-80
2023/10/13 10:16:36;;;;;;;11.65;6.32;;;;;;;;;;4996619;28;20201;-82
2023/10/13 10:19:02;;;;;;;12.32;6.07;;;;;;;;;;4989255;28;20072;-82
2023/10/13 10:21:37;;;;;;;19.13;6.57;;;;;;;;;;5000574;28;20129;-82
2023/10/13 10:24:14;;;;;;;9.82;6.03;;;;;;;;;;4999481;28;20753;-82
2023/10/13 10:26:51;;;;;;;10.45;5.35;;;;;;;;;;5002053;28;20057;-84
2023/10/13 10:29:18;;;;;;;14.30;6.20;;;;;;;;;;4999568;28;20089;-84
2023/10/13 10:31:45;;;;;;;13.15;5.43;;;;;;;;;;4972517;28;20037;-85
2023/10/13 10:34:13;;;;;;;15.05;5.15;;;;;;;;;;4992855;28;20052;-86
2023/10/13 10:36:42;;;;;;;12.13;5.20;;;;;;;;;;4991895;28;20054;-84
2023/10/13 10:39:12;;;;;;;12.27;4.80;;;;;;;;;;4989311;28;20408;-81
2023/10/13 10:44:11;;;;;;;8.50;5.03;;;;;;;;;;5002240;28;20042;-84
2023/10/13 10:46:42;;;;;;;12.05;4.70;;;;;;;;;;5007003;28;20563;-84
2023/10/13 10:49:08;;;;;;;15.15;4.95;;;;;;;;;;4977928;28;20412;-83
2023/10/13 10:51:43;;;;;;;8.18;4.35;;;;;;;;;;4976413;28;20060;-85
2023/10/13 10:54:18;;;;;;;11.00;5.63;;;;;;;;;;5003670;28;20038;-83
2023/10/13 10:56:44;;;;;;;9.98;4.95;;;;;;;;;;5002671;28;20034;-84
2023/10/13 10:59:21;;;;;;;13.02;5.55;;;;;;;;;;4991846;28;20034;-84
2023/10/13 11:01:50;;;;;;;13.82;4.80;;;;;;;;;;5003422;28;20046;-85
2023/10/13 11:06:54;;;;;;;14.63;5.55;;;;;;;;;;5001404;28;20050;-86
2023/10/13 11:11:57;;;;;;;14.43;4.28;;;;;;;;;;5004714;28;20042;-86
2023/10/13 11:14:27;;;;;;;18.20;5.40;;;;;;;;;;5003442;28;20547;-88
2023/10/13 11:16:54;;;;;;;12.55;4.63;;;;;;;;;;5002237;28;20044;-79
2023/10/13 11:19:41;;;;;;;13.73;5.40;;;19.90;99.90;;;;;;5004715;28;20132;-79
2023/10/13 11:22:10;;;;;;;10.60;3.90;;;;;;;;;;4975158;28;20123;-78
2023/10/13 11:24:43;;;;;;;15.15;4.88;;;;;;;;;;4991127;28;20119;-79
2023/10/13 11:27:43;;;;;;;11.20;4.38;;;;;;;;;;4985608;28;20056;-79
2023/10/13 11:30:12;;;;;;;18.35;4.75;;;;;;;;;;4997814;28;20042;-78
2023/10/13 11:32:41;;;;;;;12.80;4.35;;;;;;;;;;5004090;28;20185;-80
2023/10/13 11:35:20;;;;;;;16.13;4.95;;;;;;;;;;5013147;28;20398;-87
2023/10/13 11:38:13;;;;;;;18.88;4.80;;;;;;;;;;5006725;28;20481;-85
2023/10/13 11:43:24;;;;;;;13.95;4.90;;;;;;;;;;5006500;28;20046;-81
2023/10/13 11:46:12;;;;;;;11.27;4.40;;;;;;;;;;5013695;28;20047;-85
2023/10/13 11:48:41;;;;;;;15.85;5.38;;;;;;;;;;4990706;28;20069;-85
2023/10/13 11:51:08;;;;;;;10.30;5.00;;;;;;;;;;4991846;28;20392;-86
2023/10/13 11:53:37;;;;;;;14.98;4.28;;;;;;;;;;4987382;28;20481;-86
2023/10/13 11:56:09;;;;;;;11.15;4.45;;;;;;;;;;4987992;28;20040;-85
2023/10/13 11:58:39;;;;;;;12.60;4.82;;;;;;;;;;4984915;28;20395;-84
2023/10/13 12:11:48;;;;;;;11.75;5.28;;;;;;;;;;5000178;28;20371;-81
2023/10/13 12:14:21;;;;;;;14.77;4.88;;;;;;;;;;4982663;28;20065;-83
2023/10/13 12:16:50;;;;;;;18.73;6.72;;;;;;;;;;5009019;28;20046;-87
2023/10/13 12:19:17;;;;;;;15.75;5.38;;;;;;;;;;5003830;28;20049;-86
2023/10/13 12:21:43;;;;;;;16.00;5.63;;;;;;;;;;4984253;28;20056;-86
2023/10/13 12:24:22;;;;;;;16.48;6.15;;;;;;;;;;4987018;28;20053;-85
2023/10/13 12:26:55;;;;;;;21.48;6.68;;;;;;;;;;4974076;28;20053;-81
2023/10/13 12:29:22;;;;;;;12.73;6.00;;;;;;;;;;4988596;28;20497;-81
2023/10/13 12:32:05;;;;;;;17.23;5.82;;;;;;;;;;4974202;28;20316;-81
2023/10/13 12:34:57;;;;;;;20.67;6.90;;;;;;;;;;4999084;28;20048;-81
2023/10/13 12:37:38;;;;;;;16.27;5.65;;;;;;;;;;5002913;28;20141;-81
2023/10/13 12:49:07;;;;;;;16.92;5.28;;;;;;;;;;4930361;29;21717;-78
2023/10/13 12:54:04;;;;;;;21.05;5.70;;;;;;;;;;4987217;28;20045;-78
2023/10/13 12:56:30;;;;;;;15.25;6.07;;;;;;;;;;5001138;28;20448;-82
2023/10/13 12:58:57;;;;;;;16.85;6.32;;;;;;;;;;4987362;28;20069;-81
2023/10/13 13:01:24;;;;;;;16.42;7.35;;;;;;;;;;4982177;28;20133;-83
2023/10/13 13:03:55;;;;;;;21.17;7.15;;;;;;;;;;5000993;28;20049;-82
2023/10/13 13:06:25;;;;;;;22.88;7.53;;;;;;;;;;4974381;28;20050;-84
2023/10/13 13:08:55;;;;;;;12.57;6.18;;;;;;;;;;4990177;28;20073;-82
2023/10/13 13:11:21;;;;;;;13.18;5.95;;;;;;;;;;5000737;28;20441;-80
2023/10/13 13:13:47;;;;;;;14.70;6.43;;;;;;;;;;4987256;28;20070;-80
2023/10/13 13:16:14;;;;;;;14.68;6.60;;;;;;;;;;5000257;28;20394;-84
2023/10/13 13:18:40;;;;;;;14.88;6.32;;;;;;;;;;4983804;28;20038;-81
2023/10/13 13:21:06;;;;;;;14.73;6.65;;;;;;;;;;4988641;28;20050;-79
2023/10/13 13:23:34;;;;;;;16.58;7.68;;;;;;;;;;4984295;28;20042;-80
2023/10/13 13:26:00;;;;;;;17.52;7.68;;;;;;;;;;4971613;28;20038;-82
2023/10/13 13:28:28;;;;;;;19.55;8.60;;;;;;;;;;5003456;28;20041;-81
2023/10/13 13:30:55;;;;;;;19.17;8.63;;;;;;;;;;5005279;28;20077;-82
2023/10/13 13:33:25;;;;;;;18.52;8.75;;;;;;;;;;4999732;28;20042;-82
2023/10/13 13:35:58;;;;;;;26.75;10.85;;;;;;;;;;4993830;28;20042;-84
2023/10/13 13:38:31;;;;;;;21.65;9.63;;;;;;;;;;4977745;28;20099;-83
2023/10/13 13:40:58;;;;;;;19.00;8.52;;;;;;;;;;5006222;28;20050;-83
2023/10/13 13:43:41;;;;;;;14.27;7.28;;;;;;;;;;4999225;28;20397;-83
2023/10/13 13:46:10;;;;;;;15.85;8.25;;;;;;;;;;4997891;28;20057;-85
2023/10/13 13:48:37;;;;;;;17.30;8.48;;;;;;;;;;5010645;28;20092;-82
2023/10/13 13:51:14;;;;;;;21.55;8.40;;;;;;;;;;4981452;28;20034;-84
2023/10/13 13:53:47;;;;;;;14.48;8.30;;;;;;;;;;5007961;28;20101;-84
2023/10/13 13:56:18;;;;;;;20.90;9.70;;;;;;;;;;5007912;28;20048;-80
2023/10/13 13:58:50;;;;;;;17.05;8.80;;;;;;;;;;4992028;28;20136;-81
2023/10/13 14:01:21;;;;;;;20.65;9.15;;;;;;;;;;4996310;28;20475;-82
2023/10/13 14:03:50;;;;;;;22.65;9.52;;;;;;;;;;5012059;28;20038;-82
2023/10/13 14:06:24;;;;;;;17.48;8.20;;;;;;;;;;4996868;28;20494;-82
2023/10/13 14:08:59;;;;;;;18.80;7.93;;;;;;;;;;5001312;28;20497;-82
2023/10/13 14:14:11;;;;;;;19.90;8.27;;;;;;;;;;5005646;28;20046;-81
2023/10/13 14:16:38;;;;;;;21.92;8.35;;;;;;;;;;4992728;28;20045;-80
2023/10/13 14:19:07;;;;;;;15.43;6.85;;;;;;;;;;4993605;28;20129;-82
2023/10/13 14:21:35;;;;;;;20.80;8.23;;;;;;;;;;5011908;28;20073;-80
2023/10/13 14:24:02;;;;;;;15.63;7.07;;;;;;;;;;4985936;28;20045;-81
2023/10/13 14:26:28;;;;;;;14.23;7.00;;;;;;;;;;5004109;28;20058;-82
2023/10/13 14:29:05;;;;;;;20.88;7.15;;;;;;;;;;4993775;28;20042;-80
2023/10/13 14:31:32;;;;;;;15.48;6.68;;;;;;;;;;5007383;28;20141;-80
2023/10/13 14:33:58;;;;;;;15.32;6.95;;;;;;;;;;4993582;28;20385;-80
2023/10/13 14:36:28;;;;;;;15.75;7.50;;;;;;;;;;5005450;28;20034;-81
2023/10/13 14:38:54;;;;;;;15.65;7.25;;;;;;;;;;5009585;28;20153;-81
2023/10/13 14:41:21;;;;;;;19.90;6.82;;;;;;;;;;5009220;28;20037;-81
2023/10/13 14:43:47;;;;;;;13.85;6.28;;;;;;;;;;5001432;28;20057;-82
2023/10/13 14:46:17;;;;;;;16.20;6.15;;;;;;;;;;5005036;28;20095;-80
2023/10/13 14:48:44;;;;;;;13.75;6.28;;;;;;;;;;5007312;28;20046;-82
2023/10/13 14:51:12;;;;;;;21.63;8.07;;;;;;;;;;5001935;28;20046;-83
2023/10/13 14:53:43;;;;;;;22.15;8.35;;;;;;;;;;4997397;28;20042;-82
2023/10/13 14:56:09;;;;;;;17.27;7.22;;;;;;;;;;4993671;28;20080;-82
2023/10/13 14:58:42;;;;;;;17.58;7.22;;;;;;;;;;5007085;28;20264;-83
2023/10/13 15:01:15;;;;;;;12.80;6.30;;;;;;;;;;4994241;28;20096;-82
2023/10/13 15:03:44;;;;;;;18.60;7.28;;;;;;;;;;4972704;28;20042;-85
2023/10/13 15:06:24;;;;;;;22.25;9.50;;;;;;;;;;5014011;28;20505;-82
2023/10/13 15:08:51;;;;;;;19.10;7.80;;;;;;;;;;5003068;28;20081;-83
2023/10/13 15:11:19;;;;;;;19.00;7.80;;;;;;;;;;4992293;28;20089;-82
2023/10/13 15:13:50;;;;;;;23.48;7.63;;;;;;;;;;4999026;28;20033;-83
2023/10/13 15:16:29;;;;;;;22.98;8.90;;;;;;;;;;5001185;28;20084;-82
2023/10/13 15:18:55;;;;;;;13.80;6.53;;;;;;;;;;5025985;28;20556;-83
2023/10/13 15:21:22;;;;;;;21.90;8.35;;;;;;;;;;4989251;28;20045;-83
2023/10/13 15:23:52;;;;;;;13.40;6.88;;;;;;;;;;4987387;28;20444;-83
2023/10/13 15:26:23;;;;;;;24.33;8.20;;;;;;;;;;5002770;28;20049;-83
2023/10/13 15:28:49;;;;;;;18.17;7.82;;;;;;;;;;5006360;28;20073;-83
2023/10/13 15:34:23;;;;;;;18.60;8.38;;;;;;;;;;4942955;28;20058;-85
2023/10/13 15:36:55;;;;;;;17.88;8.88;;;;;;;;;;4983736;28;20886;-85
2023/10/13 15:39:28;;;;;;;20.20;8.80;;;;;;;;;;4998603;28;20058;-84
2023/10/13 15:41:58;;;;;;;21.10;8.45;;;;;;;;;;5008983;28;20171;-85
2023/10/13 15:44:24;;;;;;;18.17;9.25;;;;;;;;;;4981091;28;20033;-85
2023/10/13 15:46:54;;;;;;;27.27;7.97;;;;;;;;;;5005278;28;20034;-84
2023/10/13 15:49:20;;;;;;;17.13;8.88;;;;;;;;;;5006660;28;20061;-84
2023/10/13 15:51:46;;;;;;;16.98;8.52;;;;;;;;;;4997796;28;20501;-85
2023/10/13 15:54:16;;;;;;;18.70;6.85;;;;;;;;;;5007122;28;20034;-85
2023/10/13 15:56:46;;;;;;;24.70;9.15;;;;;;;;;;5005256;28;20068;-84
2023/10/13 15:59:12;;;;;;;24.27;9.75;;;;;;;;;;4989792;28;20489;-83
2023/10/13 16:01:39;;;;;;;19.95;9.00;;;;;;;;;;5008469;28;20052;-84
2023/10/13 16:04:13;;;;;;;17.27;8.32;;;;;;;;;;5005376;28;20075;-83
2023/10/13 16:06:46;;;;;;;23.13;9.32;;;;;;;;;;5029038;28;20056;-84
2023/10/13 16:09:19;;;;;;;18.80;8.93;;;;;;;;;;5007746;28;20080;-84
2023/10/13 16:11:47;;;;;;;18.95;9.73;;;;;;;;;;5004589;28;20413;-82
2023/10/13 16:14:20;;;;;;;18.67;8.48;;;;;;;;;;5010195;28;20045;-82
2023/10/13 16:16:48;;;;;;;25.35;10.02;;;;;;;;;;4994160;28;20564;-83
2023/10/13 16:19:21;;;;;;;19.90;8.77;;;;;;;;;;5010196;28;20091;-84
2023/10/13 16:21:47;;;;;;;21.17;10.25;;;;;;;;;;5007601;28;20053;-83
2023/10/13 16:24:17;;;;;;;14.40;7.65;;;;;;;;;;4984242;28;20132;-84
2023/10/13 16:26:44;;;;;;;25.00;9.65;;;;;;;;;;4989928;28;20060;-82
2023/10/13 16:29:10;;;;;;;20.55;10.00;;;;;;;;;;5003333;28;20154;-81
2023/10/13 16:31:36;;;;;;;25.42;10.35;;;;;;;;;;4987038;28;20049;-84
2023/10/13 16:34:04;;;;;;;23.02;10.38;;;;;;;;;;5006905;28;20378;-85
2023/10/13 16:36:31;;;;;;;21.95;10.38;;;;;;;;;;4982449;28;20052;-87
2023/10/13 16:39:00;;;;;;;20.65;7.57;;;;;;;;;;5001175;28;20057;-88
2023/10/13 16:41:28;;;;;;;14.10;7.75;;;;;;;;;;5008939;28;20056;-88
2023/10/13 16:43:54;;;;;;;15.75;8.20;;;;;;;;;;4984067;28;20480;-87
2023/10/13 16:46:20;;;;;;;14.68;7.93;;;;;;;;;;4997778;28;20104;-89
2023/10/13 16:48:49;;;;;;;13.45;7.80;;;;;;;;;;4994195;28;20077;-88
2023/10/13 16:51:15;;;;;;;19.45;8.77;;;;;;;;;;4997888;28;20036;-84
2023/10/13 16:53:51;;;;;;;13.85;6.97;;;;;;;;;;4979395;28;20033;-86
2023/10/13 16:56:17;;;;;;;15.75;6.88;;;;;;;;;;4996156;28;20041;-83
2023/10/13 16:58:44;;;;;;;17.70;7.03;;;;;;;;;;4978349;28;20195;-85
2023/10/13 17:01:14;;;;;;;12.55;6.70;;;;;;;;;;5010272;28;20060;-80
2023/10/13 17:03:41;;;;;;;12.32;6.05;;;;;;;;;;4978455;28;20045;-83
2023/10/13 17:06:08;;;;;;;18.13;7.15;;;;;;;;;;4995183;28;20049;-84
2023/10/13 17:08:36;;;;;;;16.10;6.40;;;;;;;;;;5016396;28;20037;-83
2023/10/13 17:11:15;;;;;;;11.18;5.07;;;;;;;;;;4991315;28;20042;-84
2023/10/13 17:13:42;;;;;;;11.00;5.45;;;;;;;;;;5022037;28;20050;-84
2023/10/13 17:16:12;;;;;;;14.30;5.45;;;;;;;;;;4996797;28;20073;-84
2023/10/13 17:18:39;;;;;;;13.13;5.45;;;;;;;;;;4990445;28;20038;-84
2023/10/13 17:21:13;;;;;;;14.60;5.28;;;;;;;;;;5003620;28;20446;-84
2023/10/13 17:23:40;;;;;;;18.77;6.70;;;;;;;;;;5014691;28;20388;-84
2023/10/13 17:26:07;;;;;;;14.60;4.30;;;;;;;;;;5000056;28;20540;-79
2023/10/13 17:28:33;;;;;;;17.48;5.13;;;;;;;;;;5011816;28;20049;-81
2023/10/13 17:31:00;;;;;;;16.52;4.38;;;;;;;;;;4982599;28;20041;-81
2023/10/13 17:33:26;;;;;;;9.93;4.22;;;;;;;;;;5027872;28;20050;-83
2023/10/13 17:35:52;;;;;;;9.48;4.63;;;;;;;;;;5006642;28;20481;-82
2023/10/13 17:38:18;;;;;;;11.73;4.28;;;;;;;;;;4993696;28;20492;-83
2023/10/13 17:40:44;;;;;;;14.32;4.40;;;;;;;;;;4995218;28;20083;-82
2023/10/13 17:43:11;;;;;;;12.18;4.40;;;;;;;;;;5003571;28;20049;-82
2023/10/13 17:45:37;;;;;;;15.60;4.95;;;;;;;;;;4999318;28;20053;-81
2023/10/13 17:48:06;;;;;;;9.20;3.75;;;;;;;;;;4995986;28;20092;-81
2023/10/13 17:50:32;;;;;;;9.25;4.28;;;;;;;;;;4983820;28;20061;-81
2023/10/13 17:53:01;;;;;;;8.07;4.38;;;;;;;;;;5010145;28;20066;-80
2023/10/13 17:55:27;;;;;;;13.32;4.15;;;;;;;;;;5014974;28;20102;-80
2023/10/13 17:57:53;;;;;;;12.18;4.40;;;;;;;;;;4996916;28;20045;-81
2023/10/13 18:00:25;;;;;;;10.32;4.90;;;;;;;;;;4993051;28;20546;-81
2023/10/13 18:02:54;;;;;;;14.73;5.60;;;;;;;;;;5013686;28;20098;-82
2023/10/13 18:05:20;;;;;;;12.82;5.65;;;;;;;;;;5012023;28;20042;-82
2023/10/13 18:07:49;;;;;;;11.13;5.45;;;;;;;;;;5000275;28;20045;-81
2023/10/13 18:10:15;;;;;;;14.75;5.05;;;;;;;;;;5032486;28;20033;-81
2023/10/13 18:12:42;;;;;;;13.40;6.03;;;;;;;;;;5009979;28;20041;-84
2023/10/13 18:15:13;;;;;;;8.80;5.15;;;;;;;;;;5012610;28;20045;-82
2023/10/13 18:17:41;;;;;;;19.33;6.43;;;;;;;;;;4986709;28;20045;-84
2023/10/13 18:20:14;;;;;;;11.18;6.00;;;;;;;;;;4998792;28;20045;-85
2023/10/13 18:22:40;;;;;;;15.23;6.70;;;;;;;;;;5001675;28;20539;-84
2023/10/13 18:25:13;;;;;;;18.00;6.63;;;;;;;;;;5000644;28;20434;-86
2023/10/13 18:27:42;;;;;;;13.98;5.72;;;;;;;;;;4994700;28;20046;-85
2023/10/13 18:30:12;;;;;;;12.82;6.38;;;;;;;;;;5001107;28;20050;-82
2023/10/13 18:32:39;;;;;;;19.08;6.63;;;;;;;;;;4983191;28;20042;-85